Time;durP1;ratioP1;P1;durP2;ratioP2;P2;SDS_P1;SDS_P2;PMS_P1;PMS_P2;Temp;Humidity;BMP_temperature;BMP_pressure;BME280_temperature;BME280_humidity;BME280_pressure;Samples;Min_cycle;Max_cycle;Signal;HPM_P1;HPM_P2
2022/05/08 00:01:00;;;;;;;;;3.00;3.00;;;;;20.82;51.74;102817.78;5051990;28;9438;-71
2022/05/08 00:03:26;;;;;;;;;4.75;3.00;;;;;20.82;51.81;102821.31;5049696;28;8806;-71
2022/05/08 00:05:51;;;;;;;;;3.00;3.00;;;;;20.81;52.16;102824.84;5052007;28;9357;-71
2022/05/08 00:08:16;;;;;;;;;2.00;2.00;;;;;20.82;51.75;102823.09;5052441;28;8790;-71
2022/05/08 00:10:42;;;;;;;;;2.75;2.75;;;;;20.81;51.94;102818.66;5051429;28;8792;-72
2022/05/08 00:13:09;;;;;;;;;3.00;3.00;;;;;20.79;51.71;102817.75;5049745;28;8789;-72
2022/05/08 00:15:35;;;;;;;;;3.75;3.00;;;;;20.80;51.62;102819.53;5052095;28;8774;-72
2022/05/08 00:18:00;;;;;;;;;4.00;3.25;;;;;20.78;51.76;102815.97;5050997;28;9608;-73
2022/05/08 00:20:29;;;;;;;;;1.75;1.75;;;;;20.78;51.78;102810.66;5051994;28;8798;-73
2022/05/08 00:22:54;;;;;;;;;4.00;4.00;;;;;20.78;51.71;102813.28;5051336;28;9553;-72
2022/05/08 00:25:20;;;;;;;;;2.25;2.00;;;;;20.78;51.60;102815.97;5052434;28;9371;-73
2022/05/08 00:27:48;;;;;;;;;3.00;2.00;;;;;20.76;51.68;102817.72;5051808;28;8797;-73
2022/05/08 00:30:13;;;;;;;;;4.50;4.50;;;;;20.76;51.78;102818.63;5051926;28;8758;-72
2022/05/08 00:32:39;;;;;;;;;3.50;3.50;;;;;20.74;51.42;102817.69;5049109;28;9597;-72
2022/05/08 00:35:05;;;;;;;;;4.00;3.25;;;;;20.76;51.60;102815.06;5051481;28;8794;-72
2022/05/08 00:37:30;;;;;;;;;2.75;2.50;;;;;20.72;51.53;102808.84;5053089;28;8817;-71
2022/05/08 00:39:56;;;;;;;;;3.00;3.00;;;;;20.73;51.50;102810.63;5051341;28;9443;-73
2022/05/08 00:42:21;;;;;;;;;2.50;2.50;;;;;20.73;51.62;102816.78;5049875;28;8825;-71
2022/05/08 00:44:46;;;;;;;;;0.33;0.33;;;;;20.73;51.48;102819.44;5050659;28;8786;-72
2022/05/08 00:47:12;;;;;;;;;2.00;2.00;;;;;20.72;51.48;102815.03;5051617;28;8774;-71
2022/05/08 00:49:37;;;;;;;;;3.67;3.67;;;;;20.71;51.42;102823.88;5051324;28;8786;-71
2022/05/08 00:52:03;;;;;;;;;3.50;3.50;;;;;20.71;51.41;102817.66;5049106;28;8833;-71
2022/05/08 00:54:29;;;;;;;;;3.50;3.50;;;;;20.70;51.67;102819.41;5051185;28;8786;-72
2022/05/08 00:56:56;;;;;;;;;2.00;2.00;;;;;20.70;51.49;102819.41;5051214;28;9504;-71
2022/05/08 00:59:21;;;;;;;;;3.33;2.00;;;;;20.69;51.68;102820.31;5050086;28;9695;-72
2022/05/08 01:01:46;;;;;;;;;4.00;3.25;;;;;20.69;51.42;102817.66;5049686;28;9340;-71
2022/05/08 01:04:12;;;;;;;;;3.00;3.00;;;;;20.68;51.65;102822.94;5050280;28;8813;-72
2022/05/08 01:06:37;;;;;;;;;3.00;3.00;;;;;20.68;50.95;102817.63;5050781;28;8777;-72
2022/05/08 01:09:02;;;;;;;;;2.00;2.00;;;;;20.66;51.28;102816.69;5051334;28;8797;-73
2022/05/08 01:11:28;;;;;;;;;2.33;2.33;;;;;20.66;51.43;102814.94;5051323;28;9561;-73
2022/05/08 01:13:53;;;;;;;;;3.00;3.00;;;;;20.66;51.39;102811.41;5048376;28;8786;-73
2022/05/08 01:16:20;;;;;;;;;4.00;2.25;;;;;20.65;51.34;102815.84;5051388;28;8786;-73
2022/05/08 01:18:48;;;;;;;;;3.75;3.75;;;;;20.65;51.63;102817.59;5051034;28;8808;-73
2022/05/08 01:21:16;;;;;;;;;2.50;2.50;;;;;20.63;51.65;102812.25;5050530;28;9417;-73
2022/05/08 01:23:41;;;;;;;;;2.50;2.50;;;;;20.63;51.41;102806.06;5049471;28;9565;-74
2022/05/08 01:26:07;;;;;;;;;3.00;2.25;;;;;20.64;51.55;102815.81;5051079;28;9538;-72
2022/05/08 01:28:33;;;;;;;;;2.25;2.25;;;;;20.62;51.49;102809.59;5050322;28;8908;-72
2022/05/08 01:30:59;;;;;;;;;2.75;2.75;;;;;20.61;51.68;102813.13;5050651;28;8851;-73
2022/05/08 01:33:24;;;;;;;;;3.00;3.00;;;;;20.59;51.52;102810.44;5049371;28;8826;-73
2022/05/08 01:35:50;;;;;;;;;2.25;2.00;;;;;20.59;51.62;102809.53;5050427;28;8818;-73
2022/05/08 01:38:21;;;;;;;;;2.00;2.00;;;;;20.59;51.48;102818.41;5051062;28;8854;-72
2022/05/08 01:40:46;;;;;;;;;2.33;2.33;;;;;20.58;51.55;102811.31;5050604;28;8802;-72
2022/05/08 01:43:12;;;;;;;;;3.00;3.00;;;;;20.59;51.71;102818.41;5047999;28;9455;-72
2022/05/08 01:45:39;;;;;;;;;2.75;2.75;;;;;20.58;51.37;102819.28;5050792;28;8789;-72
2022/05/08 01:48:23;;;;;;;;;3.75;3.00;;;;;20.56;51.50;102823.69;5049756;28;9409;-72
2022/05/08 01:50:58;;;;;;;;;5.25;4.00;;;;;20.58;51.63;102831.69;5049399;28;9396;-72
2022/05/08 01:53:27;;;;;;;;;4.00;4.00;;;;;20.56;51.43;102823.69;5048435;28;9523;-72
2022/05/08 01:55:54;;;;;;;;;3.00;2.00;;;;;20.55;51.53;102816.59;5049572;28;9405;-72
2022/05/08 01:58:26;;;;;;;;;4.00;3.00;;;;;20.54;51.55;102825.44;5050485;28;9401;-73
2022/05/08 02:00:53;;;;;;;;;3.00;3.00;;;;;20.55;51.55;102823.66;5050394;28;9513;-73
2022/05/08 02:03:22;;;;;;;;;2.00;2.00;;;;;20.53;51.86;102822.75;5047573;28;9426;-72
2022/05/08 02:05:48;;;;;;;;;2.67;2.67;;;;;20.53;51.61;102828.97;5049935;28;9295;-72
2022/05/08 02:08:14;;;;;;;;;4.33;3.33;;;;;20.53;51.61;102821.00;5049902;28;9274;-73
2022/05/08 02:10:39;;;;;;;;;4.00;2.00;;;;;20.51;51.43;102824.47;5049641;28;8797;-73
2022/05/08 02:13:07;;;;;;;;;3.00;3.00;;;;;20.51;51.63;102822.72;5048260;28;8802;-73
2022/05/08 02:15:33;;;;;;;;;2.00;1.00;;;;;20.51;51.47;102828.03;5050629;28;8781;-73
2022/05/08 02:18:01;;;;;;;;;2.00;2.00;;;;;20.51;51.40;102830.69;5048988;28;9355;-73
2022/05/08 02:20:27;;;;;;;;;3.67;2.67;;;;;20.50;51.61;102831.59;5050419;28;9432;-72
2022/05/08 02:22:52;;;;;;;;;3.67;2.67;;;;;20.49;51.45;102835.09;5047855;28;9440;-72
2022/05/08 02:25:17;;;;;;;;;2.00;2.00;;;;;20.50;51.47;102833.34;5049636;28;8782;-73
2022/05/08 02:27:46;;;;;;;;;2.00;2.00;;;;;20.49;51.44;102834.19;5050272;28;8800;-73
2022/05/08 02:30:12;;;;;;;;;3.50;3.50;;;;;20.48;51.42;102838.63;5050091;28;8798;-71
2022/05/08 02:32:38;;;;;;;;;2.50;2.50;;;;;20.48;51.48;102841.28;5048095;28;10246;-71
2022/05/08 02:35:05;;;;;;;;;2.25;1.75;;;;;20.48;51.55;102838.63;5049570;28;8856;-73
2022/05/08 02:37:30;;;;;;;;;2.25;2.00;;;;;20.47;51.45;102838.63;5049255;28;9411;-71
2022/05/08 02:39:56;;;;;;;;;3.00;3.00;;;;;20.46;51.38;102840.38;5049808;28;10128;-71
2022/05/08 02:42:21;;;;;;;;;2.50;2.00;;;;;20.47;51.25;102830.66;5048134;28;8810;-72
2022/05/08 02:44:46;;;;;;;;;2.00;2.00;;;;;20.46;51.36;102840.38;5048681;28;8790;-72
2022/05/08 02:47:11;;;;;;;;;2.00;1.00;;;;;20.45;51.53;102837.69;5050195;28;8786;-72
2022/05/08 02:49:37;;;;;;;;;3.00;1.33;;;;;20.45;51.28;102850.94;5049978;28;8782;-72
2022/05/08 02:52:02;;;;;;;;;3.25;2.00;;;;;20.44;51.26;102852.72;5047439;28;9075;-72
2022/05/08 02:54:28;;;;;;;;;2.00;2.00;;;;;20.44;51.49;102851.81;5049664;28;8810;-72
2022/05/08 02:59:37;;;;;;;;;3.25;3.25;;;;;20.42;51.54;102849.16;5049168;28;9640;-72
2022/05/08 03:02:03;;;;;;;;;2.00;2.00;;;;;20.42;51.39;102846.50;5050041;28;9576;-72
2022/05/08 03:04:28;;;;;;;;;2.00;2.00;;;;;20.42;51.36;102842.97;5053117;28;11459;-74
2022/05/08 03:06:53;;;;;;;;;3.75;3.75;;;;;20.42;51.50;102850.91;5052404;28;8839;-73
2022/05/08 03:09:19;;;;;;;;;1.75;1.75;;;;;20.41;51.22;102857.09;5053654;28;8809;-73
2022/05/08 03:11:44;;;;;;;;;1.50;1.50;;;;;20.41;51.37;102852.69;5053766;28;8809;-74
2022/05/08 03:14:10;;;;;;;;;2.75;2.75;;;;;20.40;51.13;102853.53;5051773;28;10245;-73
2022/05/08 03:16:35;;;;;;;;;3.00;2.00;;;;;20.40;51.36;102860.59;5053124;28;9541;-72
2022/05/08 03:19:00;;;;;;;;;2.67;2.00;;;;;20.39;51.31;102867.69;5052738;28;8774;-72
2022/05/08 03:21:26;;;;;;;;;1.50;1.50;;;;;20.39;51.41;102856.19;5052587;28;8810;-71
2022/05/08 03:23:51;;;;;;;;;1.00;1.00;;;;;20.38;51.17;102862.38;5051779;28;8824;-72
2022/05/08 03:26:19;;;;;;;;;3.00;2.00;;;;;20.39;51.56;102864.16;5053246;28;8815;-71
2022/05/08 03:28:45;;;;;;;;;1.00;1.00;;;;;20.39;51.19;102865.06;5052847;28;8777;-72
2022/05/08 03:31:11;;;;;;;;;2.67;2.00;;;;;20.37;51.24;102865.88;5053044;28;9425;-72
2022/05/08 03:33:38;;;;;;;;;3.75;3.00;;;;;20.36;51.37;102864.97;5050020;28;9417;-71
2022/05/08 03:36:04;;;;;;;;;3.33;3.00;;;;;20.38;51.51;102865.00;5052601;28;8840;-72
2022/05/08 03:38:30;;;;;;;;;1.50;1.00;;;;;20.36;51.40;102864.97;5052857;28;9402;-72
2022/05/08 03:40:56;;;;;;;;;3.00;3.00;;;;;20.35;51.23;102865.88;5051738;28;9423;-72
2022/05/08 03:43:21;;;;;;;;;1.00;1.00;;;;;20.36;51.25;102861.47;5050767;28;8834;-71
2022/05/08 03:45:50;;;;;;;;;1.00;1.00;;;;;20.36;51.39;102866.78;5052201;28;9345;-72
2022/05/08 03:48:16;;;;;;;;;1.33;1.33;;;;;20.34;51.55;102860.53;5051742;28;9007;-73
2022/05/08 03:50:42;;;;;;;;;2.00;2.00;;;;;20.35;51.28;102872.94;5052290;28;9389;-72
2022/05/08 03:53:07;;;;;;;;;2.00;2.00;;;;;20.33;51.42;102878.22;5049816;28;9485;-72
2022/05/08 03:55:32;;;;;;;;;3.25;2.00;;;;;20.32;51.32;102873.75;5051506;28;8884;-72
2022/05/08 03:57:58;;;;;;;;;3.67;2.33;;;;;20.33;51.20;102878.22;5051764;28;8906;-72
2022/05/08 04:00:23;;;;;;;;;1.00;1.00;;;;;20.33;51.21;102878.22;5051818;28;8821;-71
2022/05/08 04:02:48;;;;;;;;;2.25;2.25;;;;;20.33;51.22;102880.88;5049273;28;8806;-72
2022/05/08 04:05:14;;;;;;;;;2.00;2.00;;;;;20.31;51.38;102879.97;5051603;28;8806;-71
2022/05/08 04:07:40;;;;;;;;;2.00;1.00;;;;;20.32;51.42;102880.88;5051616;28;8900;-71
2022/05/08 04:10:07;;;;;;;;;2.33;2.00;;;;;20.31;51.17;102887.94;5050482;28;8797;-71
2022/05/08 04:12:33;;;;;;;;;2.00;2.00;;;;;20.31;51.31;102877.31;5048783;28;8789;-72
2022/05/08 04:14:59;;;;;;;;;2.00;2.00;;;;;20.31;51.14;102879.06;5051142;28;9207;-71
2022/05/08 04:17:26;;;;;;;;;2.00;1.67;;;;;20.31;51.30;102884.38;5050606;28;9999;-72
2022/05/08 04:19:52;;;;;;;;;3.00;2.00;;;;;20.27;51.40;102879.00;5051331;28;8932;-71
2022/05/08 04:25:01;;;;;;;;;2.00;2.00;;;;;20.29;51.26;102880.78;5050127;28;9557;-72
2022/05/08 04:27:26;;;;;;;;;2.00;2.00;;;;;20.28;51.31;102879.94;5051258;28;9397;-72
2022/05/08 04:29:52;;;;;;;;;1.00;1.00;;;;;20.29;51.33;102883.44;5050491;28;8916;-72
2022/05/08 04:32:17;;;;;;;;;1.00;1.00;;;;;20.29;51.20;102892.31;5049552;28;8824;-72
2022/05/08 04:34:42;;;;;;;;;2.00;2.00;;;;;20.27;51.30;102897.56;5051003;28;8810;-72
2022/05/08 04:37:09;;;;;;;;;2.25;1.50;;;;;20.27;51.36;102901.97;5050014;28;8802;-72
2022/05/08 04:39:34;;;;;;;;;1.75;1.75;;;;;20.27;51.36;102896.66;5051203;28;8978;-72
2022/05/08 04:42:01;;;;;;;;;2.00;2.00;;;;;20.25;51.45;102896.63;5049103;28;9360;-72
2022/05/08 04:44:27;;;;;;;;;1.75;1.00;;;;;20.26;50.84;102898.44;5050045;28;8916;-72
2022/05/08 04:46:52;;;;;;;;;4.75;2.00;;;;;20.26;51.19;102897.53;5050674;28;10044;-72
2022/05/08 04:49:17;;;;;;;;;1.00;1.00;;;;;20.25;51.18;102895.75;5050660;28;8790;-72
2022/05/08 04:51:42;;;;;;;;;1.33;1.33;;;;;20.24;51.14;102908.09;5050211;28;8793;-72
2022/05/08 04:54:08;;;;;;;;;2.33;2.00;;;;;20.25;51.21;102904.59;5049181;28;8802;-71
2022/05/08 04:56:33;;;;;;;;;1.67;1.33;;;;;20.25;51.12;102912.56;5050640;28;8802;-72
2022/05/08 04:58:58;;;;;;;;;2.00;1.00;;;;;20.25;51.17;102915.22;5049702;28;8790;-72
2022/05/08 05:01:24;;;;;;;;;2.00;2.00;;;;;20.25;51.01;102915.22;5050560;28;8849;-72
2022/05/08 05:03:50;;;;;;;;;2.25;1.25;;;;;20.25;51.11;102924.91;5048507;28;8802;-72
2022/05/08 05:06:16;;;;;;;;;1.67;1.00;;;;;20.24;51.12;102925.81;5050165;28;9490;-71
2022/05/08 05:08:41;;;;;;;;;1.33;1.00;;;;;20.23;51.13;102918.72;5050481;28;11481;-71
2022/05/08 05:11:10;;;;;;;;;2.00;1.00;;;;;20.24;51.23;102924.03;5050240;28;8836;-72
2022/05/08 05:13:39;;;;;;;;;2.33;1.00;;;;;20.25;50.92;102930.22;5047778;28;8891;-73
2022/05/08 05:16:05;;;;;;;;;1.00;1.00;;;;;20.24;51.10;102926.69;5049882;28;9302;-72
2022/05/08 05:18:30;;;;;;;;;1.00;1.00;;;;;20.25;51.10;102931.13;5050173;28;9301;-72
2022/05/08 05:20:55;;;;;;;;;1.00;1.00;;;;;20.23;51.15;102927.56;5049104;28;9311;-71
2022/05/08 05:23:20;;;;;;;;;0.67;0.67;;;;;20.23;51.08;102926.69;5048403;28;8817;-72
2022/05/08 05:25:46;;;;;;;;;1.00;1.00;;;;;20.24;51.01;102937.28;5049465;28;9577;-72
2022/05/08 05:28:11;;;;;;;;;1.67;1.67;;;;;20.25;50.98;102935.53;5049348;28;8786;-72
2022/05/08 05:30:37;;;;;;;;;1.00;1.00;;;;;20.24;50.97;102939.06;5049994;28;8793;-72
2022/05/08 05:33:03;;;;;;;;;2.00;2.00;;;;;20.23;51.09;102932.88;5048395;28;8818;-72
2022/05/08 05:35:28;;;;;;;;;1.33;1.33;;;;;20.23;50.95;102939.94;5049109;28;9438;-73
2022/05/08 05:37:53;;;;;;;;;1.00;1.00;;;;;20.23;50.93;102935.53;5049717;28;8790;-72
2022/05/08 05:40:20;;;;;;;;;2.00;2.00;;;;;20.23;51.11;102939.94;5049192;28;8822;-72
2022/05/08 05:42:46;;;;;;;;;1.00;1.00;;;;;20.23;50.97;102940.84;5048174;28;8916;-72
2022/05/08 05:45:11;;;;;;;;;1.00;1.00;;;;;20.24;50.70;102936.44;5049542;28;9363;-72
2022/05/08 05:47:57;;;;;;;;;1.00;1.00;;;;;20.23;50.86;102943.50;5049467;28;9235;-72
2022/05/08 05:50:24;;;;;;;;;0.00;0.00;;;;;20.23;51.01;102940.84;5050029;28;8778;-72
2022/05/08 05:52:53;;;;;;;;;4.00;1.00;;;;;20.23;50.82;102942.59;5048065;28;9049;-72
2022/05/08 05:55:19;;;;;;;;;3.00;1.00;;;;;20.23;50.64;102950.53;5048895;28;10015;-71
2022/05/08 05:57:44;;;;;;;;;1.25;1.00;;;;;20.23;50.87;102945.25;5050744;28;9516;-72
2022/05/08 06:00:15;;;;;;;;;2.67;0.33;;;;;20.24;50.73;102953.19;5050085;28;8933;-72
2022/05/08 06:02:43;;;;;;;;;0.67;0.67;;;;;20.24;50.90;102952.34;5047631;28;8833;-73
2022/05/08 06:05:12;;;;;;;;;2.67;1.00;;;;;20.24;50.81;102957.66;5049576;28;9231;-73
2022/05/08 06:07:39;;;;;;;;;1.67;1.67;;;;;20.24;50.81;102957.66;5049869;28;9179;-71
2022/05/08 06:10:07;;;;;;;;;2.00;1.00;;;;;20.23;50.85;102963.81;5050721;28;9364;-71
2022/05/08 06:12:33;;;;;;;;;0.67;0.33;;;;;20.23;50.61;102958.50;5050794;28;9195;-71
2022/05/08 06:14:58;;;;;;;;;2.00;2.00;;;;;20.23;50.89;102961.16;5049561;28;9307;-72
2022/05/08 06:17:24;;;;;;;;;0.00;0.00;;;;;20.23;50.71;102958.50;5048715;28;8931;-72
2022/05/08 06:19:49;;;;;;;;;4.00;2.33;;;;;20.22;50.80;102962.03;5049344;28;8875;-73
2022/05/08 06:22:14;;;;;;;;;2.00;1.00;;;;;20.22;50.55;102957.59;5048095;28;8843;-71
2022/05/08 06:24:40;;;;;;;;;0.67;0.67;;;;;20.23;50.57;102958.50;5048843;28;8845;-72
2022/05/08 06:27:05;;;;;;;;;1.33;1.33;;;;;20.23;50.78;102958.50;5049409;28;9569;-72
2022/05/08 06:29:31;;;;;;;;;1.00;1.00;;;;;20.22;50.68;102962.91;5048998;28;8814;-74
2022/05/08 06:31:57;;;;;;;;;1.00;1.00;;;;;20.23;50.69;102966.47;5047600;28;8786;-73
2022/05/08 06:34:22;;;;;;;;;1.33;1.33;;;;;20.23;50.63;102975.31;5049138;28;9205;-73
2022/05/08 06:36:47;;;;;;;;;3.00;2.00;;;;;20.24;50.67;102962.94;5050462;28;8798;-72
2022/05/08 06:39:13;;;;;;;;;1.00;1.00;;;;;20.24;50.46;102970.91;5053455;28;8785;-72
2022/05/08 06:41:39;;;;;;;;;2.00;2.00;;;;;20.25;50.26;102973.56;5053250;28;8813;-73
2022/05/08 06:44:04;;;;;;;;;1.00;1.00;;;;;20.27;50.17;102978.91;5050355;28;8846;-72
2022/05/08 06:46:34;;;;;;;;;1.00;1.00;;;;;20.26;50.29;102980.66;5053397;28;8794;-73
2022/05/08 06:48:59;;;;;;;;;1.00;0.67;;;;;20.27;50.17;102978.91;5052702;28;8802;-72
2022/05/08 06:51:26;;;;;;;;;1.33;1.00;;;;;20.26;50.24;102985.97;5052705;28;9436;-72
2022/05/08 06:53:52;;;;;;;;;0.33;0.33;;;;;20.28;50.29;102986.03;5050155;28;8829;-73
2022/05/08 06:56:17;;;;;;;;;0.00;0.00;;;;;20.27;50.26;102985.13;5053192;28;9203;-73
2022/05/08 07:01:38;;;;;;;;;1.00;1.00;;;;;20.29;50.14;102992.22;5052921;28;8797;-72
2022/05/08 07:04:04;;;;;;;;;1.67;1.00;;;;;20.30;50.22;102997.56;5050167;28;9167;-73
2022/05/08 07:06:30;;;;;;;;;1.00;1.00;;;;;20.31;50.17;102990.50;5052074;28;9197;-72
2022/05/08 07:08:57;;;;;;;;;0.67;0.67;;;;;20.29;50.30;102993.09;5052983;28;9355;-72
2022/05/08 07:11:22;;;;;;;;;1.00;1.00;;;;;20.31;50.16;102994.03;5052722;28;8766;-72
2022/05/08 07:13:48;;;;;;;;;1.00;1.00;;;;;20.30;50.14;102996.66;5048295;28;9268;-72
2022/05/08 07:16:13;;;;;;;;;4.00;1.00;;;;;20.32;50.12;103003.75;5052211;28;8806;-72
2022/05/08 07:18:38;;;;;;;;;0.00;0.00;;;;;20.33;50.07;103000.25;5051622;28;8825;-72
2022/05/08 07:21:05;;;;;;;;;2.00;0.67;;;;;20.36;50.05;102991.47;5052392;28;8810;-73
2022/05/08 07:23:31;;;;;;;;;1.00;1.00;;;;;20.38;49.70;102993.25;5049139;28;9677;-73
2022/05/08 07:25:57;;;;;;;;;2.33;0.00;;;;;20.41;49.76;102990.66;5051263;28;9217;-72
2022/05/08 07:28:22;;;;;;;;;1.67;1.67;;;;;20.42;49.49;102988.91;5052526;28;9116;-73
2022/05/08 07:30:48;;;;;;;;;2.00;1.00;;;;;20.47;49.50;103000.50;5052017;28;8904;-73
2022/05/08 07:33:16;;;;;;;;;1.00;1.00;;;;;20.47;49.63;102995.19;5048648;28;8813;-73
2022/05/08 07:38:29;;;;;;;;;2.00;2.00;;;;;20.51;49.58;102999.63;5052428;28;9173;-72
2022/05/08 07:40:55;;;;;;;;;0.00;0.00;;;;;20.53;49.51;103000.56;5051463;28;9306;-72
2022/05/08 07:43:21;;;;;;;;;2.00;2.00;;;;;20.53;49.45;103004.13;5048863;28;9159;-72
2022/05/08 07:45:46;;;;;;;;;0.33;0.33;;;;;20.55;49.60;103001.47;5051568;28;9287;-72
2022/05/08 07:48:11;;;;;;;;;0.00;0.00;;;;;20.55;49.32;103007.66;5051600;28;9521;-72
2022/05/08 07:50:37;;;;;;;;;0.00;0.00;;;;;20.57;49.30;103008.59;5052050;28;8782;-72
2022/05/08 07:53:02;;;;;;;;;2.00;1.00;;;;;20.59;49.33;103008.59;5048316;28;8818;-73
2022/05/08 07:55:28;;;;;;;;;1.00;1.00;;;;;20.60;49.35;103010.41;5051252;28;8822;-73
2022/05/08 07:57:53;;;;;;;;;1.00;1.00;;;;;20.60;49.17;103007.75;5051827;28;8805;-72
2022/05/08 08:00:18;;;;;;;;;1.00;0.00;;;;;20.60;49.22;103008.66;5051968;28;8844;-72
2022/05/08 08:02:44;;;;;;;;;1.00;0.33;;;;;20.61;49.39;103015.75;5047562;28;8918;-73
2022/05/08 08:05:09;;;;;;;;;1.00;1.00;;;;;20.62;49.38;103011.34;5051411;28;8829;-72
2022/05/08 08:07:36;;;;;;;;;1.00;0.67;;;;;20.61;49.27;103009.53;5051849;28;8862;-72
2022/05/08 08:10:02;;;;;;;;;1.00;0.67;;;;;20.63;49.20;103011.34;5050795;28;8792;-72
2022/05/08 08:12:28;;;;;;;;;0.33;0.33;;;;;20.62;49.26;103006.03;5048260;28;9227;-72
2022/05/08 08:14:53;;;;;;;;;0.33;0.33;;;;;20.63;49.22;103013.09;5050199;28;9204;-72
2022/05/08 08:17:18;;;;;;;;;2.33;0.67;;;;;20.62;49.18;103006.88;5051329;28;8848;-72
2022/05/08 08:19:44;;;;;;;;;1.00;1.00;;;;;20.63;49.13;103014.00;5051466;28;8856;-72
2022/05/08 08:22:09;;;;;;;;;2.67;1.00;;;;;20.65;49.17;103003.41;5047172;28;8813;-72
2022/05/08 08:24:34;;;;;;;;;2.33;1.00;;;;;20.66;49.18;103007.81;5050619;28;8841;-72
2022/05/08 08:27:01;;;;;;;;;2.00;1.33;;;;;20.66;48.96;103015.78;5050809;28;8778;-71
2022/05/08 08:29:26;;;;;;;;;1.00;1.00;;;;;20.68;49.03;103014.06;5050526;28;8770;-73
2022/05/08 08:31:51;;;;;;;;;0.00;0.00;;;;;20.66;49.24;103014.03;5049407;28;9222;-73
2022/05/08 08:34:16;;;;;;;;;0.00;0.00;;;;;20.67;49.06;103014.94;5049093;28;8838;-72
2022/05/08 08:36:41;;;;;;;;;1.00;1.00;;;;;20.67;49.17;103010.50;5051034;28;9482;-72
2022/05/08 08:39:07;;;;;;;;;1.00;1.00;;;;;20.68;48.91;103019.38;5051062;28;8778;-72
2022/05/08 08:41:35;;;;;;;;;1.00;1.00;;;;;20.70;49.09;103023.81;5052094;28;9365;-73
2022/05/08 08:49:51;;;;;;;;;2.00;1.67;;;;;20.72;48.74;103014.13;5051580;28;9385;-73
2022/05/08 08:52:16;;;;;;;;;0.67;0.67;;;;;20.73;48.79;103023.88;5030143;28;9380;-73
2022/05/08 08:54:42;;;;;;;;;0.67;0.67;;;;;20.75;48.83;103018.59;5051153;28;9958;-72
2022/05/08 08:57:07;;;;;;;;;1.00;1.00;;;;;20.76;48.64;103016.84;5050801;28;8863;-72
2022/05/08 08:59:33;;;;;;;;;1.00;1.00;;;;;20.76;48.70;103011.53;5051086;28;8786;-72
2022/05/08 09:01:58;;;;;;;;;1.00;1.00;;;;;20.77;48.81;103008.00;5048764;28;8774;-72
2022/05/08 09:04:23;;;;;;;;;0.67;0.67;;;;;20.77;48.78;103022.13;5049327;28;8944;-72
2022/05/08 09:06:49;;;;;;;;;0.00;0.00;;;;;20.78;48.53;103023.03;5050983;28;8782;-72
2022/05/08 09:09:28;;;;;;;;;1.00;1.00;;;;;20.78;48.64;103018.63;5051341;28;8782;-72
2022/05/08 09:11:55;;;;;;;;;1.00;1.00;;;;;20.78;48.73;103009.75;5048274;28;10702;-73
2022/05/08 09:14:31;;;;;;;;;1.00;1.00;;;;;20.81;48.49;103008.03;5049402;28;9303;-72
2022/05/08 09:16:58;;;;;;;;;1.00;1.00;;;;;20.82;48.41;103014.25;5050593;28;9163;-72
2022/05/08 09:19:40;;;;;;;;;0.00;0.00;;;;;20.82;48.54;103017.78;5049983;28;9267;-72
2022/05/08 09:22:07;;;;;;;;;1.00;0.67;;;;;20.82;48.59;103015.16;5047322;28;9130;-72
2022/05/08 09:24:36;;;;;;;;;0.33;0.33;;;;;20.84;48.34;103012.53;5050400;28;9381;-72
2022/05/08 09:27:16;;;;;;;;;0.00;0.00;;;;;20.82;48.33;103015.16;5050056;28;9370;-73
2022/05/08 09:29:42;;;;;;;;;0.67;0.67;;;;;20.83;48.30;103013.38;5050895;28;9133;-73
2022/05/08 09:32:08;;;;;;;;;0.33;0.33;;;;;20.84;48.49;103012.53;5046816;28;9305;-73
2022/05/08 09:34:58;;;;;;;;;1.00;0.00;;;;;20.85;48.54;103009.88;5050170;28;9274;-73
2022/05/08 09:37:25;;;;;;;;;2.67;1.33;;;;;20.91;50.53;103004.66;5050455;28;11447;-69
2022/05/08 09:39:51;;;;;;;;;4.00;1.33;;;;;20.99;54.05;103010.06;5049721;28;9432;-70
2022/05/08 09:42:35;;;;;;;;;1.67;1.67;;;;;21.07;52.47;103005.75;5050535;28;9323;-68
2022/05/08 09:45:10;;;;;;;;;0.33;0.33;;;;;21.18;52.93;103009.47;5050560;28;9213;-68
2022/05/08 09:47:49;;;;;;;;;1.25;1.25;;;;;21.33;53.90;103014.97;5049887;28;9197;-68
2022/05/08 09:50:17;;;;;;;;;1.00;1.00;;;;;21.41;57.14;103013.28;5050608;28;9491;-69
2022/05/08 09:52:43;;;;;;;;;2.00;1.00;;;;;21.41;55.73;103015.03;5050072;28;9368;-69
2022/05/08 09:55:10;;;;;;;;;3.00;3.00;;;;;21.39;56.56;103017.69;5048972;28;9332;-69
2022/05/08 09:57:36;;;;;;;;;5.00;4.00;;;;;21.40;54.37;103008.84;5049831;28;9264;-70
2022/05/08 10:00:03;;;;;;;;;1.00;1.00;;;;;21.37;51.47;103010.59;5049307;28;9370;-72
2022/05/08 10:02:29;;;;;;;;;1.00;1.00;;;;;20.90;46.65;103009.94;5049052;28;8871;-73
2022/05/08 10:04:54;;;;;;;;;1.00;1.00;;;;;20.82;50.60;103011.59;5048424;28;9263;-73
2022/05/08 10:07:23;;;;;;;;;1.00;1.00;;;;;20.56;43.32;103016.53;5049547;28;8778;-73
2022/05/08 10:15:34;;;;;;;;;1.00;1.00;;;;;20.59;41.66;103005.94;5033337;28;9245;-71
2022/05/08 10:18:22;;;;;;;;;0.00;0.00;;;;;20.37;39.28;103010.03;5033263;28;9223;-71
2022/05/08 10:21:04;;;;;;;;;1.00;0.00;;;;;20.32;38.57;103002.91;5034114;28;9169;-71
2022/05/08 10:23:43;;;;;;;;;1.00;1.00;;;;;20.33;38.63;103004.66;5033620;28;9104;-72
2022/05/08 10:26:19;;;;;;;;;2.00;1.00;;;;;20.27;38.20;102997.47;5033982;28;9135;-72
2022/05/08 10:29:02;;;;;;;;;1.67;1.00;;;;;20.41;38.88;103000.38;5032714;28;9356;-72
2022/05/08 10:31:44;;;;;;;;;0.67;0.67;;;;;20.38;38.02;102992.38;5034063;28;9412;-72
2022/05/08 10:34:11;;;;;;;;;1.00;1.00;;;;;20.40;38.40;102993.28;5033905;28;9188;-72
2022/05/08 10:36:36;;;;;;;;;2.00;1.00;;;;;20.41;38.70;102989.75;5033083;28;9179;-72
2022/05/08 10:39:37;;;;;;;;;1.00;1.00;;;;;20.38;37.48;102987.97;5033847;28;9345;-72
2022/05/08 10:42:02;;;;;;;;;2.00;1.00;;;;;20.50;37.62;102995.22;5037910;28;8817;-73
2022/05/08 10:44:36;;;;;;;;;2.00;1.33;;;;;20.32;36.85;102982.53;5053128;28;9289;-71
2022/05/08 10:47:33;;;;;;;;;0.33;0.33;;;;;20.27;37.21;102990.41;5052837;28;8770;-71
2022/05/08 10:50:09;;;;;;;;;3.00;1.00;;;;;20.13;36.96;102983.97;5051874;28;9293;-71
2022/05/08 10:52:42;;;;;;;;;1.00;1.00;;;;;20.25;36.80;102978.88;5053382;28;9332;-71
2022/05/08 10:55:14;;;;;;;;;0.00;0.00;;;;;20.32;36.38;102993.16;5052902;28;9278;-71
2022/05/08 10:57:41;;;;;;;;;1.33;1.33;;;;;20.39;36.91;102994.16;5052607;28;9114;-72
2022/05/08 11:00:21;;;;;;;;;1.00;1.00;;;;;20.26;36.16;102988.63;5051876;28;9241;-72
2022/05/08 11:02:50;;;;;;;;;1.00;1.00;;;;;20.27;36.54;102989.53;5052322;28;9112;-71
2022/05/08 11:05:19;;;;;;;;;1.00;1.00;;;;;20.26;36.64;102995.69;5052894;28;9211;-71
2022/05/08 11:07:52;;;;;;;;;0.67;0.67;;;;;20.30;36.54;102992.25;5052735;28;9188;-72
2022/05/08 11:10:22;;;;;;;;;1.00;1.00;;;;;20.35;36.95;102995.88;5051870;28;9209;-71
2022/05/08 11:12:54;;;;;;;;;1.00;1.00;;;;;20.31;37.19;102990.50;5052108;28;9202;-71
2022/05/08 11:15:20;;;;;;;;;0.00;0.00;;;;;20.35;37.19;102987.03;5053242;28;9267;-71
2022/05/08 11:17:45;;;;;;;;;0.33;0.00;;;;;20.25;36.84;102986.81;5051476;28;9315;-71
2022/05/08 11:20:15;;;;;;;;;2.33;1.33;;;;;20.32;36.98;102990.50;5051899;28;8865;-72
2022/05/08 11:22:53;;;;;;;;;1.00;1.00;;;;;20.42;36.80;102989.78;5052254;28;8802;-72
2022/05/08 11:25:18;;;;;;;;;2.00;1.00;;;;;20.26;36.08;102983.31;5052399;28;9342;-71
2022/05/08 11:27:52;;;;;;;;;0.00;0.00;;;;;20.38;36.23;102985.31;5052780;28;9178;-71
2022/05/08 11:30:35;;;;;;;;;2.50;1.00;;;;;20.37;36.20;102979.97;5051627;28;8809;-71
2022/05/08 11:38:45;;;;;;;;;1.00;1.00;;;;;20.17;36.64;102971.69;5051440;28;9436;-71
2022/05/08 11:41:10;;;;;;;;;0.00;0.00;;;;;20.27;35.70;102968.31;5052091;28;10053;-70
2022/05/08 11:43:38;;;;;;;;;1.00;1.00;;;;;20.38;36.18;102974.69;5052977;28;9365;-72
2022/05/08 11:46:03;;;;;;;;;2.25;1.25;;;;;20.35;35.74;102971.09;5051419;28;8785;-71
2022/05/08 11:48:37;;;;;;;;;3.75;2.00;;;;;20.28;35.45;102970.13;5051632;28;9340;-72
2022/05/08 11:51:04;;;;;;;;;3.00;2.00;;;;;20.31;35.40;102962.22;5052233;28;8956;-71
2022/05/08 11:53:49;;;;;;;;;3.75;3.75;;;;;20.41;35.39;102964.13;5051452;28;9590;-71
2022/05/08 11:56:26;;;;;;;;;5.00;4.00;;;;;20.41;35.64;102964.13;5052565;28;9555;-72
2022/05/08 11:58:55;;;;;;;;;6.00;5.00;;;;;20.39;35.20;102964.97;5050722;28;9510;-72
2022/05/08 12:01:30;;;;;;;;;5.50;5.50;;;;;20.15;35.37;102950.44;5050654;28;9666;-72
2022/05/08 12:03:57;;;;;;;;;4.75;4.75;;;;;20.27;35.33;102963.88;5051719;28;9665;-72